createdAt,value
2022-09-15T00:01:42.620Z,98881.59
2022-09-15T00:04:10.967Z,98878.63
2022-09-15T00:06:39.545Z,98874.98
2022-09-15T00:09:08.092Z,98865.98
2022-09-15T00:11:38.130Z,98859.16
2022-09-15T00:14:08.859Z,98852.29
2022-09-15T00:16:38.772Z,98847.41
2022-09-15T00:19:07.454Z,98850.83
2022-09-15T00:21:39.421Z,98846.65
2022-09-15T00:24:09.661Z,98842.97
2022-09-15T00:26:38.854Z,98846.05
2022-09-15T00:29:07.129Z,98845.11
2022-09-15T00:31:35.514Z,98848.87
2022-09-15T00:34:05.042Z,98858.79
2022-09-15T00:36:34.131Z,98866.33
2022-09-15T00:39:02.317Z,98867.84
2022-09-15T00:41:31.309Z,98863.46
2022-09-15T00:44:07.524Z,98866.98
2022-09-15T00:46:41.559Z,98859.14
2022-09-15T00:49:26.911Z,98855.63
2022-09-15T00:52:04.815Z,98847.08
2022-09-15T00:55:08.671Z,98838.89
2022-09-15T00:57:44.678Z,98833.81
2022-09-15T01:00:18.608Z,98830.48
2022-09-15T01:02:48.572Z,98827.76
2022-09-15T01:05:20.561Z,98816.36
2022-09-15T01:08:05.849Z,98812.63
2022-09-15T01:10:39.316Z,98804.70
2022-09-15T01:13:12.717Z,98807.30
2022-09-15T01:16:13.223Z,98810.08
2022-09-15T01:18:56.819Z,98806.59
2022-09-15T01:21:56.879Z,98812.12
2022-09-15T01:24:42.315Z,98800.16
2022-09-15T01:27:52.024Z,98784.91
2022-09-15T01:30:24.949Z,98767.45
2022-09-15T01:33:31.402Z,98767.71
2022-09-15T01:36:12.801Z,98761.30
2022-09-15T01:39:24.173Z,98758.60
2022-09-15T01:42:01.248Z,98763.52
2022-09-15T01:44:39.277Z,98761.95
2022-09-15T01:47:12.758Z,98769.54
2022-09-15T01:50:15.492Z,98775.46
2022-09-15T01:52:49.459Z,98771.13
2022-09-15T01:55:31.779Z,98761.23
2022-09-15T01:58:00.228Z,98771.04
2022-09-15T02:00:40.386Z,98774.98
2022-09-15T02:03:38.070Z,98776.98
2022-09-15T02:06:15.941Z,98766.67
2022-09-15T02:09:02.792Z,98752.21
2022-09-15T02:11:33.085Z,98743.43
2022-09-15T02:14:21.232Z,98737.69
2022-09-15T02:16:54.372Z,98742.52
2022-09-15T02:19:33.758Z,98746.92
2022-09-15T02:22:17.849Z,98743.48
2022-09-15T02:24:55.194Z,98742.05
2022-09-15T02:27:28.613Z,98737.65
2022-09-15T02:30:06.120Z,98738.36
2022-09-15T02:32:37.121Z,98744.84
2022-09-15T02:35:09.444Z,98744.94
2022-09-15T02:37:39.221Z,98742.39
2022-09-15T02:40:08.965Z,98734.27
2022-09-15T02:42:37.389Z,98724.05
2022-09-15T02:45:06.612Z,98721.15
2022-09-15T02:47:35.071Z,98711.36
2022-09-15T02:50:04.185Z,98705.31
2022-09-15T02:52:32.767Z,98702.15
2022-09-15T02:55:01.145Z,98698.06
2022-09-15T02:57:29.913Z,98695.46
2022-09-15T03:00:13.774Z,98693.91
2022-09-15T03:02:45.818Z,98685.30
2022-09-15T03:05:15.174Z,98687.82
2022-09-15T03:07:43.824Z,98687.38
2022-09-15T03:10:13.114Z,98688.42
2022-09-15T03:12:45.169Z,98685.52
2022-09-15T03:15:16.846Z,98691.60
2022-09-15T03:17:47.197Z,98699.34
2022-09-15T03:20:25.015Z,98700.57
2022-09-15T03:22:53.533Z,98696.73
2022-09-15T03:25:22.338Z,98695.91
2022-09-15T03:27:50.698Z,98687.39
2022-09-15T03:30:19.300Z,98685.55
2022-09-15T03:32:48.989Z,98681.30
2022-09-15T03:35:17.419Z,98682.56
2022-09-15T03:37:46.027Z,98671.48
2022-09-15T03:40:14.624Z,98660.39
2022-09-15T03:42:43.085Z,98658.64
2022-09-15T03:45:11.280Z,98670.81
2022-09-15T03:47:39.691Z,98680.45
2022-09-15T03:50:08.736Z,98687.14
2022-09-15T03:52:37.250Z,98684.65
2022-09-15T03:55:06.298Z,98683.98
2022-09-15T03:57:34.534Z,98689.91
2022-09-15T04:00:05.577Z,98687.34
2022-09-15T04:02:34.200Z,98687.58
2022-09-15T04:05:02.903Z,98685.21
2022-09-15T04:07:31.323Z,98678.70
2022-09-15T04:10:00.491Z,98678.89
2022-09-15T04:12:32.336Z,98680.59
2022-09-15T04:15:01.454Z,98685.44
2022-09-15T04:17:30.248Z,98689.84
2022-09-15T04:19:58.640Z,98681.99
2022-09-15T04:22:27.877Z,98676.83
2022-09-15T04:24:56.106Z,98668.81
2022-09-15T04:27:24.699Z,98681.48
2022-09-15T04:29:53.596Z,98684.19
2022-09-15T04:32:25.487Z,98682.48
2022-09-15T04:34:53.833Z,98680.26
2022-09-15T04:37:23.386Z,98680.04
2022-09-15T04:39:51.874Z,98674.51
2022-09-15T04:42:21.913Z,98674.73
2022-09-15T04:44:50.301Z,98670.79
2022-09-15T04:47:18.666Z,98666.86
2022-09-15T04:49:47.094Z,98666.81
2022-09-15T04:52:15.497Z,98655.17
2022-09-15T04:54:44.017Z,98655.21
2022-09-15T04:57:12.460Z,98653.45
2022-09-15T04:59:40.838Z,98655.36
2022-09-15T05:02:09.164Z,98652.75
2022-09-15T05:04:37.622Z,98655.04
2022-09-15T05:07:06.215Z,98660.84
2022-09-15T05:09:34.777Z,98658.71
2022-09-15T05:12:03.097Z,98651.59
2022-09-15T05:14:31.992Z,98652.14
2022-09-15T05:17:00.390Z,98645.90
2022-09-15T05:19:28.950Z,98638.02
2022-09-15T05:21:57.291Z,98630.48
2022-09-15T05:24:25.695Z,98623.66
2022-09-15T05:26:54.011Z,98624.80
2022-09-15T05:29:22.558Z,98623.23
2022-09-15T05:31:52.892Z,98617.81
2022-09-15T05:34:23.567Z,98615.44
2022-09-15T05:36:52.794Z,98623.70
2022-09-15T05:39:21.336Z,98630.15
2022-09-15T05:41:50.333Z,98614.22
2022-09-15T05:44:18.964Z,98622.75
2022-09-15T05:46:49.179Z,98621.65
2022-09-15T05:49:17.574Z,98613.10
2022-09-15T05:51:46.961Z,98605.21
2022-09-15T05:54:19.507Z,98598.72
2022-09-15T05:56:48.012Z,98596.89
2022-09-15T05:59:16.413Z,98593.59
2022-09-15T06:01:45.303Z,98595.77
2022-09-15T06:04:16.645Z,98592.22
2022-09-15T06:06:45.040Z,98590.05
2022-09-15T06:09:14.338Z,98588.20
2022-09-15T06:11:42.961Z,98583.44
2022-09-15T06:14:13.817Z,98580.86
2022-09-15T06:16:42.517Z,98571.78
2022-09-15T06:19:10.921Z,98571.36
2022-09-15T06:21:39.512Z,98568.89
2022-09-15T06:24:12.420Z,98568.17
2022-09-15T06:26:40.822Z,98570.26
2022-09-15T06:29:12.973Z,98570.66
2022-09-15T06:31:41.931Z,98574.70
2022-09-15T06:34:11.369Z,98577.46
2022-09-15T06:36:39.781Z,98583.37
2022-09-15T06:39:08.740Z,98578.40
2022-09-15T06:42:06.015Z,98581.10
2022-09-15T06:44:31.242Z,98590.27
2022-09-15T06:46:59.973Z,98590.85
2022-09-15T06:49:29.202Z,98588.75
2022-09-15T06:51:57.992Z,98584.31
2022-09-15T06:54:28.538Z,98573.39
2022-09-15T06:56:57.045Z,98582.16
2022-09-15T06:59:25.420Z,98581.07
2022-09-15T07:02:05.223Z,98578.80
2022-09-15T07:04:37.236Z,98578.78
2022-09-15T07:07:05.732Z,98578.02
2022-09-15T07:09:34.162Z,98575.61
2022-09-15T07:12:03.842Z,98573.52
2022-09-15T07:14:32.313Z,98577.29
2022-09-15T07:17:00.673Z,98577.89
2022-09-15T07:19:29.100Z,98571.69
2022-09-15T07:21:57.556Z,98577.95
2022-09-15T07:24:26.437Z,98584.35
2022-09-15T07:26:54.787Z,98584.25
2022-09-15T07:29:23.323Z,98587.14
2022-09-15T07:31:52.463Z,98585.42
2022-09-15T07:34:21.205Z,98589.85
2022-09-15T07:36:49.614Z,98591.93
2022-09-15T07:39:18.043Z,98590.58
2022-09-15T07:41:46.714Z,98594.27
2022-09-15T07:44:15.170Z,98593.08
2022-09-15T07:46:43.538Z,98585.27
2022-09-15T07:49:12.086Z,98596.34
2022-09-15T07:51:40.458Z,98596.41
2022-09-15T07:54:09.293Z,98595.49
2022-09-15T07:56:38.025Z,98596.48
2022-09-15T07:59:06.554Z,98593.41
2022-09-15T08:01:35.174Z,98589.55
2022-09-15T08:04:03.955Z,98587.98
2022-09-15T08:06:35.341Z,98587.02
2022-09-15T08:09:04.047Z,98593.25
2022-09-15T08:11:32.809Z,98602.30
2022-09-15T08:14:02.836Z,98613.71
2022-09-15T08:16:31.621Z,98616.63
2022-09-15T08:19:02.147Z,98608.05
2022-09-15T08:21:30.499Z,98608.73
2022-09-15T08:24:01.384Z,98606.39
2022-09-15T08:26:30.129Z,98609.41
2022-09-15T08:28:58.871Z,98607.60
2022-09-15T08:31:27.287Z,98604.20
2022-09-15T08:33:56.926Z,98596.61
2022-09-15T08:36:28.391Z,98592.44
2022-09-15T08:38:57.073Z,98593.23
2022-09-15T08:41:38.102Z,98598.55
2022-09-15T08:44:42.859Z,98591.64
2022-09-15T08:47:38.482Z,98598.09
2022-09-15T08:50:34.601Z,98595.56
2022-09-15T08:53:13.507Z,98596.79
2022-09-15T08:55:49.081Z,98595.48
2022-09-15T08:58:24.557Z,98590.59
2022-09-15T09:01:11.186Z,98596.77
2022-09-15T09:04:10.763Z,98602.40
2022-09-15T09:06:45.068Z,98601.59
2022-09-15T09:09:33.281Z,98605.09
2022-09-15T09:12:29.526Z,98608.66
2022-09-15T09:15:26.177Z,98607.35
2022-09-15T09:18:47.329Z,98603.19
2022-09-15T09:21:31.302Z,98603.77
2022-09-15T09:24:28.865Z,98600.79
2022-09-15T09:26:57.254Z,98598.30
2022-09-15T09:29:35.964Z,98601.27
2022-09-15T09:32:25.185Z,98598.40
2022-09-15T09:35:33.801Z,98599.21
2022-09-15T09:38:02.706Z,98593.20
2022-09-15T09:40:32.986Z,98601.30
2022-09-15T09:43:01.488Z,98600.19
2022-09-15T09:45:29.847Z,98596.13
2022-09-15T09:48:18.944Z,98594.52
2022-09-15T09:50:47.238Z,98604.75
2022-09-15T09:53:53.768Z,98612.00
2022-09-15T09:56:27.265Z,98605.96
2022-09-15T09:58:55.791Z,98593.19
2022-09-15T10:01:26.487Z,98596.68
2022-09-15T10:04:20.290Z,98597.46
2022-09-15T10:06:49.315Z,98589.21
2022-09-15T10:09:19.594Z,98588.08
2022-09-15T10:11:54.306Z,98584.78
2022-09-15T10:14:28.356Z,98577.73
2022-09-15T10:17:06.542Z,98575.54
2022-09-15T10:19:56.188Z,98577.59
2022-09-15T10:22:40.441Z,98577.32
2022-09-15T10:25:20.632Z,98573.73
2022-09-15T10:28:09.137Z,98575.52
2022-09-15T10:30:39.161Z,98569.36
2022-09-15T10:33:26.612Z,98567.23
2022-09-15T10:35:59.958Z,98565.41
2022-09-15T10:38:44.089Z,98564.67
2022-09-15T10:41:23.322Z,98568.28
2022-09-15T10:44:12.317Z,98567.80
2022-09-15T10:47:12.197Z,98569.02
2022-09-15T10:50:18.106Z,98573.25
2022-09-15T10:53:25.918Z,98567.69
2022-09-15T10:56:21.200Z,98559.11
2022-09-15T10:59:43.617Z,98558.92
2022-09-15T11:02:11.992Z,98549.06
2022-09-15T11:05:11.137Z,98548.02
2022-09-15T11:08:01.324Z,98544.66
2022-09-15T11:10:57.161Z,98554.29
2022-09-15T11:13:56.764Z,98545.77
2022-09-15T11:16:52.948Z,98548.30
2022-09-15T11:19:52.857Z,98559.95
2022-09-15T11:22:29.338Z,98561.41
2022-09-15T11:25:22.054Z,98564.09
2022-09-15T11:28:20.126Z,98572.23
2022-09-15T11:31:32.798Z,98565.48
2022-09-15T11:34:36.000Z,98561.23
2022-09-15T11:37:23.922Z,98565.67
2022-09-15T11:40:02.384Z,98558.12
2022-09-15T11:42:42.154Z,98563.49
2022-09-15T11:45:20.785Z,98561.99
2022-09-15T11:48:16.342Z,98569.36
2022-09-15T11:50:49.325Z,98574.91
2022-09-15T11:53:32.100Z,98574.23
2022-09-15T11:56:19.585Z,98578.99
2022-09-15T11:59:18.576Z,98579.52
2022-09-15T12:02:29.486Z,98584.06
2022-09-15T12:05:19.506Z,98589.90
2022-09-15T12:08:02.771Z,98592.30
2022-09-15T12:10:42.332Z,98595.00
2022-09-15T12:13:18.477Z,98597.12
2022-09-15T12:15:48.868Z,98599.91
2022-09-15T12:18:49.128Z,98599.04
2022-09-15T12:21:23.449Z,98585.96
2022-09-15T12:24:13.717Z,98580.06
2022-09-15T12:26:43.645Z,98576.66
2022-09-15T12:29:42.146Z,98572.63
2022-09-15T12:32:18.328Z,98572.65
2022-09-15T12:35:02.632Z,98574.69
2022-09-15T12:37:40.592Z,98567.82
2022-09-15T12:40:33.282Z,98575.08
2022-09-15T12:43:18.803Z,98585.42
2022-09-15T12:45:58.407Z,98587.36
2022-09-15T12:48:36.708Z,98585.58
2022-09-15T12:51:12.059Z,98594.30
2022-09-15T12:53:54.486Z,98586.27
2022-09-15T12:56:31.961Z,98588.73
2022-09-15T12:59:06.980Z,98583.65
2022-09-15T13:01:49.663Z,98587.14
2022-09-15T13:04:26.618Z,98587.59
2022-09-15T13:07:16.266Z,98589.76
2022-09-15T13:09:57.454Z,98588.13
2022-09-15T13:12:36.726Z,98586.70
2022-09-15T13:15:13.848Z,98586.99
2022-09-15T13:17:47.408Z,98578.17
2022-09-15T13:20:26.121Z,98583.98
2022-09-15T13:22:56.692Z,98593.00
2022-09-15T13:25:30.618Z,98595.61
2022-09-15T13:28:02.079Z,98598.63
2022-09-15T13:31:04.247Z,98599.89
2022-09-15T13:40:56.867Z,98605.27
2022-09-15T13:43:58.866Z,98602.98
2022-09-15T13:46:51.489Z,98599.84
2022-09-15T13:50:05.100Z,98596.84
2022-09-15T13:53:04.917Z,98599.71
2022-09-15T13:55:42.554Z,98605.02
2022-09-15T14:01:08.743Z,98603.84
2022-09-15T14:04:00.958Z,98604.39
2022-09-15T14:06:43.026Z,98609.05
2022-09-15T14:09:37.572Z,98604.67
2022-09-15T14:12:12.359Z,98602.48
2022-09-15T14:14:53.903Z,98602.20
2022-09-15T14:17:26.201Z,98601.65
2022-09-15T14:19:57.719Z,98600.63
2022-09-15T14:22:35.587Z,98599.61
2022-09-15T14:25:08.754Z,98593.45
2022-09-15T14:27:44.523Z,98590.86
2022-09-15T14:30:26.600Z,98590.03
2022-09-15T14:33:00.829Z,98592.34
2022-09-15T14:35:36.303Z,98590.20
2022-09-15T14:38:05.177Z,98592.33
2022-09-15T14:40:38.244Z,98588.94
2022-09-15T14:43:40.575Z,98592.24
2022-09-15T14:46:14.340Z,98585.09
2022-09-15T14:48:42.787Z,98579.14
2022-09-15T14:51:33.101Z,98581.88
2022-09-15T14:54:05.658Z,98581.08
2022-09-15T14:56:42.346Z,98582.66
2022-09-15T14:59:54.673Z,98576.09
2022-09-15T15:02:47.103Z,98582.23
2022-09-15T15:06:02.571Z,98582.90
2022-09-15T15:08:42.636Z,98583.09
2022-09-15T15:11:15.890Z,98578.92
2022-09-15T15:13:50.249Z,98582.75
2022-09-15T15:16:29.845Z,98588.05
2022-09-15T15:18:58.492Z,98587.77
2022-09-15T15:21:44.676Z,98583.80
2022-09-15T15:24:13.499Z,98579.73
2022-09-15T15:26:45.017Z,98580.75
2022-09-15T15:29:58.466Z,98585.42
2022-09-15T15:32:26.936Z,98591.63
2022-09-15T15:35:02.511Z,98591.57
2022-09-15T15:37:34.075Z,98586.98
2022-09-15T15:40:07.287Z,98591.72
2022-09-15T15:42:35.926Z,98600.05
2022-09-15T15:45:10.093Z,98595.10
2022-09-15T15:47:39.063Z,98602.63
2022-09-15T15:50:15.995Z,98609.48
2022-09-15T15:52:45.129Z,98608.30
2022-09-15T15:55:22.596Z,98604.80
2022-09-15T15:57:54.605Z,98615.20
2022-09-15T16:00:22.762Z,98616.23
2022-09-15T16:02:52.332Z,98614.13
2022-09-15T16:05:25.542Z,98609.23
2022-09-15T16:07:56.178Z,98608.14
2022-09-15T16:10:30.272Z,98604.54
2022-09-15T16:12:58.705Z,98598.67
2022-09-15T16:15:27.257Z,98602.34
2022-09-15T16:17:55.520Z,98596.41
2022-09-15T16:20:25.264Z,98600.22
2022-09-15T16:22:53.752Z,98604.16
2022-09-15T16:25:47.639Z,98592.55
2022-09-15T16:28:17.846Z,98594.96
2022-09-15T16:30:46.897Z,98588.06
2022-09-15T16:33:18.073Z,98585.73
2022-09-15T16:35:51.434Z,98588.74
2022-09-15T16:38:21.564Z,98587.95
2022-09-15T16:40:51.418Z,98590.36
2022-09-15T16:43:22.022Z,98598.66
2022-09-15T16:45:51.682Z,98600.48
2022-09-15T16:48:20.422Z,98600.78
2022-09-15T16:51:09.584Z,98602.51
2022-09-15T16:53:39.614Z,98606.82
2022-09-15T16:56:12.072Z,98604.82
2022-09-15T16:58:42.253Z,98603.98
2022-09-15T17:01:21.824Z,98607.79
2022-09-15T17:03:50.292Z,98605.91
2022-09-15T17:06:19.324Z,98598.58
2022-09-15T17:08:47.818Z,98597.63
2022-09-15T17:11:20.269Z,98594.80
2022-09-15T17:13:48.858Z,98594.14
2022-09-15T17:16:19.790Z,98597.73
2022-09-15T17:18:49.219Z,98599.61
2022-09-15T17:21:18.546Z,98604.86
2022-09-15T17:23:49.588Z,98615.12
2022-09-15T17:26:30.540Z,98622.73
2022-09-15T17:28:59.726Z,98629.88
2022-09-15T17:31:28.307Z,98629.38
2022-09-15T17:33:56.761Z,98634.19
2022-09-15T17:36:25.022Z,98637.45
2022-09-15T17:38:53.491Z,98643.60
2022-09-15T17:41:25.003Z,98641.48
2022-09-15T17:43:55.111Z,98640.69
2022-09-15T17:46:24.044Z,98634.95
2022-09-15T17:48:52.673Z,98632.57
2022-09-15T17:51:21.356Z,98629.39
2022-09-15T17:53:49.741Z,98626.50
2022-09-15T17:56:18.221Z,98622.04
2022-09-15T17:58:46.625Z,98614.51
2022-09-15T18:01:16.018Z,98614.73
2022-09-15T18:03:45.269Z,98612.74
2022-09-15T18:06:14.327Z,98606.14
2022-09-15T18:08:42.922Z,98601.86
2022-09-15T18:11:14.774Z,98601.16
2022-09-15T18:13:43.376Z,98603.33
2022-09-15T18:16:14.604Z,98606.33
2022-09-15T18:18:43.235Z,98603.29
2022-09-15T18:21:28.742Z,98605.00
2022-09-15T18:23:57.535Z,98605.02
2022-09-15T18:26:26.759Z,98606.23
2022-09-15T18:28:56.075Z,98603.77
2022-09-15T18:31:24.897Z,98598.17
2022-09-15T18:33:53.699Z,98591.95
2022-09-15T18:36:22.272Z,98590.00
2022-09-15T18:38:50.542Z,98591.48
2022-09-15T18:41:18.957Z,98593.86
2022-09-15T18:43:50.768Z,98593.45
2022-09-15T18:46:20.440Z,98596.20
2022-09-15T18:48:48.896Z,98595.13
2022-09-15T18:51:24.225Z,98589.11
2022-09-15T18:53:57.849Z,98591.59
2022-09-15T18:56:26.423Z,98593.06
2022-09-15T18:58:55.706Z,98586.28
2022-09-15T19:01:24.463Z,98584.49
2022-09-15T19:03:53.036Z,98584.42
2022-09-15T19:06:21.676Z,98583.91
2022-09-15T19:08:50.310Z,98583.92
2022-09-15T19:11:18.638Z,98580.32
2022-09-15T19:13:47.222Z,98577.70
2022-09-15T19:16:18.284Z,98576.75
2022-09-15T19:18:52.152Z,98580.55
2022-09-15T19:21:25.214Z,98578.33
2022-09-15T19:23:59.075Z,98573.25
2022-09-15T19:26:29.600Z,98575.19
2022-09-15T19:28:58.562Z,98576.46
2022-09-15T19:31:27.409Z,98569.49
2022-09-15T19:33:55.833Z,98568.23
2022-09-15T19:36:28.324Z,98566.02
2022-09-15T19:39:00.710Z,98562.13
2022-09-15T19:41:30.773Z,98558.63
2022-09-15T19:44:02.565Z,98554.89
2022-09-15T19:46:31.833Z,98553.64
2022-09-15T19:49:02.451Z,98552.17
2022-09-15T19:51:31.497Z,98542.65
2022-09-15T19:54:00.907Z,98540.62
2022-09-15T19:56:29.821Z,98542.88
2022-09-15T19:58:59.502Z,98544.65
2022-09-15T20:01:32.857Z,98541.73
2022-09-15T20:04:02.118Z,98536.91
2022-09-15T20:06:32.801Z,98537.14
2022-09-15T20:09:01.509Z,98528.36
2022-09-15T20:11:31.731Z,98528.29
2022-09-15T20:14:00.990Z,98531.72
2022-09-15T20:16:30.108Z,98527.29
2022-09-15T20:18:59.008Z,98518.80
2022-09-15T20:21:49.133Z,98525.61
2022-09-15T20:24:19.521Z,98518.30
2022-09-15T20:26:48.651Z,98515.54
2022-09-15T20:29:17.009Z,98519.03
2022-09-15T20:31:46.259Z,98518.80
2022-09-15T20:34:14.998Z,98518.38
2022-09-15T20:36:43.931Z,98518.02
2022-09-15T20:39:15.365Z,98517.85
2022-09-15T20:41:45.202Z,98517.38
2022-09-15T20:44:15.345Z,98511.64
2022-09-15T20:46:43.830Z,98504.70
2022-09-15T20:49:12.782Z,98508.64
2022-09-15T20:51:41.324Z,98497.92
2022-09-15T20:54:11.125Z,98495.19
2022-09-15T20:56:39.554Z,98497.16
2022-09-15T20:59:10.574Z,98496.25
2022-09-15T21:01:39.518Z,98493.34
2022-09-15T21:04:09.241Z,98488.15
2022-09-15T21:06:38.653Z,98492.41
2022-09-15T21:09:07.999Z,98495.52
2022-09-15T21:11:37.247Z,98493.56
2022-09-15T21:14:05.843Z,98491.15
2022-09-15T21:16:35.108Z,98492.17
2022-09-15T21:19:04.474Z,98485.71
2022-09-15T21:21:33.805Z,98483.16
2022-09-15T21:24:06.508Z,98482.10
2022-09-15T21:27:00.576Z,98475.83
2022-09-15T21:29:29.744Z,98477.27
2022-09-15T21:31:58.318Z,98475.87
2022-09-15T21:34:27.173Z,98472.98
2022-09-15T21:36:55.638Z,98477.94
2022-09-15T21:39:24.122Z,98471.55
2022-09-15T21:41:52.814Z,98472.86
2022-09-15T21:44:21.096Z,98477.39
2022-09-15T21:46:49.583Z,98466.69
2022-09-15T21:49:18.653Z,98466.66
2022-09-15T21:51:47.625Z,98470.64
2022-09-15T21:54:15.956Z,98476.11
2022-09-15T21:56:45.431Z,98475.15
2022-09-15T21:59:13.825Z,98478.41
2022-09-15T22:01:42.117Z,98473.73
2022-09-15T22:04:10.766Z,98465.77
2022-09-15T22:06:41.484Z,98455.26
2022-09-15T22:09:15.832Z,98456.47
2022-09-15T22:11:44.717Z,98456.86
2022-09-15T22:14:14.644Z,98457.09
2022-09-15T22:16:43.633Z,98451.89
2022-09-15T22:19:13.469Z,98444.42
2022-09-15T22:21:42.363Z,98440.10
2022-09-15T22:24:13.724Z,98434.89
2022-09-15T22:26:43.561Z,98432.73
2022-09-15T22:29:12.168Z,98430.27
2022-09-15T22:31:42.398Z,98439.90
2022-09-15T22:34:10.973Z,98446.21
2022-09-15T22:36:39.394Z,98444.31
2022-09-15T22:39:07.972Z,98438.69
2022-09-15T22:41:39.285Z,98445.42
2022-09-15T22:44:17.099Z,98441.45
2022-09-15T22:46:45.589Z,98432.58
2022-09-15T22:49:14.263Z,98424.72
2022-09-15T22:51:43.060Z,98422.14
2022-09-15T22:54:11.618Z,98413.57
2022-09-15T22:56:40.065Z,98404.36
2022-09-15T22:59:08.493Z,98402.11
2022-09-15T23:01:36.971Z,98396.83
2022-09-15T23:04:05.286Z,98398.35
2022-09-15T23:06:34.769Z,98397.84
2022-09-15T23:09:07.981Z,98399.23
2022-09-15T23:11:40.010Z,98400.17
2022-09-15T23:14:15.407Z,98396.54
2022-09-15T23:16:44.509Z,98400.34
2022-09-15T23:19:13.680Z,98398.56
2022-09-15T23:21:42.228Z,98393.98
2022-09-15T23:24:12.673Z,98396.36
2022-09-15T23:26:40.932Z,98396.94
2022-09-15T23:29:10.333Z,98389.61
2022-09-15T23:31:38.911Z,98387.45
2022-09-15T23:34:07.303Z,98381.61
2022-09-15T23:36:35.722Z,98379.14
2022-09-15T23:39:04.358Z,98374.33
2022-09-15T23:41:32.736Z,98373.68
2022-09-15T23:44:01.321Z,98380.19
2022-09-15T23:46:30.452Z,98374.46
2022-09-15T23:48:58.894Z,98371.60
2022-09-15T23:51:27.682Z,98362.30
2022-09-15T23:53:56.256Z,98361.34
2022-09-15T23:56:25.023Z,98351.35
2022-09-15T23:58:53.432Z,98356.13
